sensor_id;sensor_type;location;lat;lon;timestamp;temperature;humidity
2543;DHT22;1116;51.502;7.414;2024-01-27T00:00:23;5.40;49.50
2543;DHT22;1116;51.502;7.414;2024-01-27T00:02:53;5.40;49.30
2543;DHT22;1116;51.502;7.414;2024-01-27T00:05:23;5.40;49.50
2543;DHT22;1116;51.502;7.414;2024-01-27T00:07:59;5.30;49.30
2543;DHT22;1116;51.502;7.414;2024-01-27T00:10:29;5.30;49.50
2543;DHT22;1116;51.502;7.414;2024-01-27T00:12:59;5.30;51.10
2543;DHT22;1116;51.502;7.414;2024-01-27T00:15:29;5.30;51.20
2543;DHT22;1116;51.502;7.414;2024-01-27T00:17:59;5.30;49.90
2543;DHT22;1116;51.502;7.414;2024-01-27T00:20:29;5.20;51.10
2543;DHT22;1116;51.502;7.414;2024-01-27T00:23:02;5.20;51.40
2543;DHT22;1116;51.502;7.414;2024-01-27T00:25:32;5.20;51.80
2543;DHT22;1116;51.502;7.414;2024-01-27T00:28:04;5.20;51.80
2543;DHT22;1116;51.502;7.414;2024-01-27T00:30:34;5.20;51.50
2543;DHT22;1116;51.502;7.414;2024-01-27T00:33:11;5.20;52.40
2543;DHT22;1116;51.502;7.414;2024-01-27T00:35:41;5.20;51.90
2543;DHT22;1116;51.502;7.414;2024-01-27T00:38:14;5.20;52.40
2543;DHT22;1116;51.502;7.414;2024-01-27T00:40:44;5.30;52.00
2543;DHT22;1116;51.502;7.414;2024-01-27T00:43:14;5.30;51.30
2543;DHT22;1116;51.502;7.414;2024-01-27T00:45:44;5.30;51.20
2543;DHT22;1116;51.502;7.414;2024-01-27T00:48:13;5.20;51.30
2543;DHT22;1116;51.502;7.414;2024-01-27T00:50:44;5.20;51.60
2543;DHT22;1116;51.502;7.414;2024-01-27T00:53:19;5.20;51.70
2543;DHT22;1116;51.502;7.414;2024-01-27T00:55:50;5.20;51.00
2543;DHT22;1116;51.502;7.414;2024-01-27T00:58:20;5.10;52.90
2543;DHT22;1116;51.502;7.414;2024-01-27T01:00:49;5.10;53.30
2543;DHT22;1116;51.502;7.414;2024-01-27T01:03:19;5.10;53.80
2543;DHT22;1116;51.502;7.414;2024-01-27T01:05:49;5.10;53.50
2543;DHT22;1116;51.502;7.414;2024-01-27T01:08:22;5.00;52.90
2543;DHT22;1116;51.502;7.414;2024-01-27T01:10:52;5.00;52.60
2543;DHT22;1116;51.502;7.414;2024-01-27T01:13:22;5.10;52.90
2543;DHT22;1116;51.502;7.414;2024-01-27T01:15:52;5.10;52.70
2543;DHT22;1116;51.502;7.414;2024-01-27T01:18:24;5.10;52.30
2543;DHT22;1116;51.502;7.414;2024-01-27T01:20:57;5.00;53.20
2543;DHT22;1116;51.502;7.414;2024-01-27T01:23:30;5.00;53.50
2543;DHT22;1116;51.502;7.414;2024-01-27T01:26:00;5.00;53.00
2543;DHT22;1116;51.502;7.414;2024-01-27T01:28:30;4.90;53.30
2543;DHT22;1116;51.502;7.414;2024-01-27T01:31:06;4.90;54.40
2543;DHT22;1116;51.502;7.414;2024-01-27T01:33:37;4.90;54.00
2543;DHT22;1116;51.502;7.414;2024-01-27T01:36:11;5.00;52.70
2543;DHT22;1116;51.502;7.414;2024-01-27T01:38:45;4.70;51.70
2543;DHT22;1116;51.502;7.414;2024-01-27T01:41:14;5.00;52.50
2543;DHT22;1116;51.502;7.414;2024-01-27T01:43:44;5.00;52.10
2543;DHT22;1116;51.502;7.414;2024-01-27T01:46:14;4.90;52.40
2543;DHT22;1116;51.502;7.414;2024-01-27T01:48:44;4.90;52.10
2543;DHT22;1116;51.502;7.414;2024-01-27T01:51:15;4.90;52.60
2543;DHT22;1116;51.502;7.414;2024-01-27T01:53:49;4.90;51.70
2543;DHT22;1116;51.502;7.414;2024-01-27T01:56:19;4.90;53.20
2543;DHT22;1116;51.502;7.414;2024-01-27T01:58:48;4.90;53.20
2543;DHT22;1116;51.502;7.414;2024-01-27T02:01:18;4.90;52.60
2543;DHT22;1116;51.502;7.414;2024-01-27T02:03:52;4.90;52.50
2543;DHT22;1116;51.502;7.414;2024-01-27T02:06:22;4.90;53.90
2543;DHT22;1116;51.502;7.414;2024-01-27T02:08:55;4.90;52.90
2543;DHT22;1116;51.502;7.414;2024-01-27T02:11:25;4.90;52.90
2543;DHT22;1116;51.502;7.414;2024-01-27T02:13:59;4.90;52.30
2543;DHT22;1116;51.502;7.414;2024-01-27T02:16:31;4.90;51.90
2543;DHT22;1116;51.502;7.414;2024-01-27T02:19:01;4.90;52.30
2543;DHT22;1116;51.502;7.414;2024-01-27T02:21:31;4.90;52.10
2543;DHT22;1116;51.502;7.414;2024-01-27T02:24:09;4.80;52.70
2543;DHT22;1116;51.502;7.414;2024-01-27T02:26:39;4.80;52.60
2543;DHT22;1116;51.502;7.414;2024-01-27T02:29:09;4.80;53.60
2543;DHT22;1116;51.502;7.414;2024-01-27T02:31:39;4.80;53.90
2543;DHT22;1116;51.502;7.414;2024-01-27T02:34:08;4.80;52.60
2543;DHT22;1116;51.502;7.414;2024-01-27T02:36:38;4.80;52.40
2543;DHT22;1116;51.502;7.414;2024-01-27T02:39:12;4.70;53.60
2543;DHT22;1116;51.502;7.414;2024-01-27T02:41:43;4.80;53.60
2543;DHT22;1116;51.502;7.414;2024-01-27T02:44:13;4.80;53.60
2543;DHT22;1116;51.502;7.414;2024-01-27T02:46:43;4.80;53.50
2543;DHT22;1116;51.502;7.414;2024-01-27T02:49:13;4.80;52.90
2543;DHT22;1116;51.502;7.414;2024-01-27T02:51:43;4.40;52.20
2543;DHT22;1116;51.502;7.414;2024-01-27T02:54:17;4.70;53.50
2543;DHT22;1116;51.502;7.414;2024-01-27T02:56:47;4.70;53.10
2543;DHT22;1116;51.502;7.414;2024-01-27T02:59:21;4.80;53.40
2543;DHT22;1116;51.502;7.414;2024-01-27T03:01:51;4.80;53.60
2543;DHT22;1116;51.502;7.414;2024-01-27T03:04:26;4.80;52.80
2543;DHT22;1116;51.502;7.414;2024-01-27T03:06:56;4.70;52.80
2543;DHT22;1116;51.502;7.414;2024-01-27T03:09:29;4.60;53.80
2543;DHT22;1116;51.502;7.414;2024-01-27T03:12:01;4.70;54.20
2543;DHT22;1116;51.502;7.414;2024-01-27T03:14:31;4.60;54.40
2543;DHT22;1116;51.502;7.414;2024-01-27T03:17:01;4.60;54.20
2543;DHT22;1116;51.502;7.414;2024-01-27T03:19:31;4.60;54.90
2543;DHT22;1116;51.502;7.414;2024-01-27T03:22:03;4.60;54.30
2543;DHT22;1116;51.502;7.414;2024-01-27T03:24:36;4.60;54.70
2543;DHT22;1116;51.502;7.414;2024-01-27T03:27:07;4.60;54.90
2543;DHT22;1116;51.502;7.414;2024-01-27T03:29:37;4.60;53.70
2543;DHT22;1116;51.502;7.414;2024-01-27T03:32:07;4.60;54.10
2543;DHT22;1116;51.502;7.414;2024-01-27T03:34:43;4.60;54.90
2543;DHT22;1116;51.502;7.414;2024-01-27T03:37:14;4.60;54.00
2543;DHT22;1116;51.502;7.414;2024-01-27T03:39:48;4.60;54.70
2543;DHT22;1116;51.502;7.414;2024-01-27T03:42:20;4.50;55.20
2543;DHT22;1116;51.502;7.414;2024-01-27T03:44:51;4.50;55.40
2543;DHT22;1116;51.502;7.414;2024-01-27T03:47:21;4.60;54.30
2543;DHT22;1116;51.502;7.414;2024-01-27T03:49:56;4.60;55.60
2543;DHT22;1116;51.502;7.414;2024-01-27T03:52:26;4.60;55.50
2543;DHT22;1116;51.502;7.414;2024-01-27T03:54:58;4.60;55.50
2543;DHT22;1116;51.502;7.414;2024-01-27T03:57:34;4.50;55.80
2543;DHT22;1116;51.502;7.414;2024-01-27T04:00:05;4.50;56.20
2543;DHT22;1116;51.502;7.414;2024-01-27T04:02:35;4.50;57.30
2543;DHT22;1116;51.502;7.414;2024-01-27T04:05:06;4.40;57.40
2543;DHT22;1116;51.502;7.414;2024-01-27T04:07:36;4.40;58.30
2543;DHT22;1116;51.502;7.414;2024-01-27T04:10:10;4.40;58.40
2543;DHT22;1116;51.502;7.414;2024-01-27T04:12:40;4.40;58.30
2543;DHT22;1116;51.502;7.414;2024-01-27T04:15:11;4.40;58.50
2543;DHT22;1116;51.502;7.414;2024-01-27T04:17:41;4.40;59.30
2543;DHT22;1116;51.502;7.414;2024-01-27T04:20:11;4.40;58.40
2543;DHT22;1116;51.502;7.414;2024-01-27T04:22:42;4.40;60.00
2543;DHT22;1116;51.502;7.414;2024-01-27T04:25:33;4.40;59.60
2543;DHT22;1116;51.502;7.414;2024-01-27T04:28:08;4.40;58.90
2543;DHT22;1116;51.502;7.414;2024-01-27T04:30:40;4.40;60.00
2543;DHT22;1116;51.502;7.414;2024-01-27T04:33:11;4.40;59.50
2543;DHT22;1116;51.502;7.414;2024-01-27T04:35:42;4.40;59.90
2543;DHT22;1116;51.502;7.414;2024-01-27T04:38:11;4.40;60.60
2543;DHT22;1116;51.502;7.414;2024-01-27T04:40:44;4.40;60.70
2543;DHT22;1116;51.502;7.414;2024-01-27T04:43:15;4.40;62.10
2543;DHT22;1116;51.502;7.414;2024-01-27T04:45:42;4.30;62.20
2543;DHT22;1116;51.502;7.414;2024-01-27T04:48:12;4.30;62.80
2543;DHT22;1116;51.502;7.414;2024-01-27T04:50:42;4.30;63.10
2543;DHT22;1116;51.502;7.414;2024-01-27T04:53:13;4.30;63.30
2543;DHT22;1116;51.502;7.414;2024-01-27T04:55:46;4.30;63.60
2543;DHT22;1116;51.502;7.414;2024-01-27T04:58:16;4.30;63.30
2543;DHT22;1116;51.502;7.414;2024-01-27T05:00:47;4.30;62.50
2543;DHT22;1116;51.502;7.414;2024-01-27T05:03:17;4.30;63.30
2543;DHT22;1116;51.502;7.414;2024-01-27T05:05:51;4.30;62.50
2543;DHT22;1116;51.502;7.414;2024-01-27T05:08:21;4.30;63.20
2543;DHT22;1116;51.502;7.414;2024-01-27T05:10:53;4.30;62.80
2543;DHT22;1116;51.502;7.414;2024-01-27T05:13:25;4.20;63.40
2543;DHT22;1116;51.502;7.414;2024-01-27T05:15:55;4.20;63.70
2543;DHT22;1116;51.502;7.414;2024-01-27T05:18:28;4.20;64.40
2543;DHT22;1116;51.502;7.414;2024-01-27T05:20:59;4.20;63.20
2543;DHT22;1116;51.502;7.414;2024-01-27T05:23:29;4.20;64.10
2543;DHT22;1116;51.502;7.414;2024-01-27T05:26:02;4.10;64.40
2543;DHT22;1116;51.502;7.414;2024-01-27T05:28:34;4.10;64.90
2543;DHT22;1116;51.502;7.414;2024-01-27T05:31:07;4.10;65.90
2543;DHT22;1116;51.502;7.414;2024-01-27T05:33:37;4.10;65.30
2543;DHT22;1116;51.502;7.414;2024-01-27T05:36:08;4.10;65.10
2543;DHT22;1116;51.502;7.414;2024-01-27T05:42:09;3.70;67.10
2543;DHT22;1116;51.502;7.414;2024-01-27T05:44:39;4.10;68.20
2543;DHT22;1116;51.502;7.414;2024-01-27T05:47:10;4.20;66.60
2543;DHT22;1116;51.502;7.414;2024-01-27T05:49:40;4.20;65.20
2543;DHT22;1116;51.502;7.414;2024-01-27T05:52:10;4.10;65.80
2543;DHT22;1116;51.502;7.414;2024-01-27T05:54:51;4.20;67.40
2543;DHT22;1116;51.502;7.414;2024-01-27T05:57:24;4.10;66.30
2543;DHT22;1116;51.502;7.414;2024-01-27T05:59:54;4.10;65.70
2543;DHT22;1116;51.502;7.414;2024-01-27T06:02:24;4.20;65.70
2543;DHT22;1116;51.502;7.414;2024-01-27T06:04:55;4.20;64.70
2543;DHT22;1116;51.502;7.414;2024-01-27T06:07:25;4.20;63.20
2543;DHT22;1116;51.502;7.414;2024-01-27T06:09:57;4.20;63.90
2543;DHT22;1116;51.502;7.414;2024-01-27T06:12:29;4.20;64.00
2543;DHT22;1116;51.502;7.414;2024-01-27T06:14:59;4.20;63.20
2543;DHT22;1116;51.502;7.414;2024-01-27T06:17:30;4.20;63.30
2543;DHT22;1116;51.502;7.414;2024-01-27T06:19:59;4.20;63.50
2543;DHT22;1116;51.502;7.414;2024-01-27T06:22:31;4.20;63.80
2543;DHT22;1116;51.502;7.414;2024-01-27T06:25:01;4.20;63.20
2543;DHT22;1116;51.502;7.414;2024-01-27T06:27:35;4.20;62.70
2543;DHT22;1116;51.502;7.414;2024-01-27T06:30:09;4.10;65.90
2543;DHT22;1116;51.502;7.414;2024-01-27T06:32:39;4.20;65.60
2543;DHT22;1116;51.502;7.414;2024-01-27T06:35:09;4.20;63.20
2543;DHT22;1116;51.502;7.414;2024-01-27T06:37:46;4.10;64.60
2543;DHT22;1116;51.502;7.414;2024-01-27T06:40:18;4.10;64.10
2543;DHT22;1116;51.502;7.414;2024-01-27T06:42:50;4.00;63.00
2543;DHT22;1116;51.502;7.414;2024-01-27T06:45:20;4.00;64.70
2543;DHT22;1116;51.502;7.414;2024-01-27T06:47:53;4.00;64.60
2543;DHT22;1116;51.502;7.414;2024-01-27T06:50:24;4.00;66.40
2543;DHT22;1116;51.502;7.414;2024-01-27T06:52:54;4.10;65.00
2543;DHT22;1116;51.502;7.414;2024-01-27T06:55:23;4.00;63.40
2543;DHT22;1116;51.502;7.414;2024-01-27T06:57:56;4.00;64.10
2543;DHT22;1116;51.502;7.414;2024-01-27T07:00:26;4.00;62.90
2543;DHT22;1116;51.502;7.414;2024-01-27T07:02:57;3.90;63.50
2543;DHT22;1116;51.502;7.414;2024-01-27T07:05:28;3.90;64.20
2543;DHT22;1116;51.502;7.414;2024-01-27T07:08:02;3.90;65.50
2543;DHT22;1116;51.502;7.414;2024-01-27T07:10:32;4.00;64.30
2543;DHT22;1116;51.502;7.414;2024-01-27T07:13:09;3.90;64.40
2543;DHT22;1116;51.502;7.414;2024-01-27T07:15:44;3.90;65.10
2543;DHT22;1116;51.502;7.414;2024-01-27T07:18:14;4.00;63.90
2543;DHT22;1116;51.502;7.414;2024-01-27T07:20:45;4.00;64.00
2543;DHT22;1116;51.502;7.414;2024-01-27T07:23:16;4.00;63.10
2543;DHT22;1116;51.502;7.414;2024-01-27T07:25:46;4.10;63.80
2543;DHT22;1116;51.502;7.414;2024-01-27T07:28:18;4.00;63.80
2543;DHT22;1116;51.502;7.414;2024-01-27T07:30:48;4.00;63.40
2543;DHT22;1116;51.502;7.414;2024-01-27T07:33:18;4.00;63.90
2543;DHT22;1116;51.502;7.414;2024-01-27T07:35:48;4.00;63.80
2543;DHT22;1116;51.502;7.414;2024-01-27T07:38:21;4.00;64.80
2543;DHT22;1116;51.502;7.414;2024-01-27T07:40:51;4.00;64.80
2543;DHT22;1116;51.502;7.414;2024-01-27T07:43:25;4.00;63.50
2543;DHT22;1116;51.502;7.414;2024-01-27T07:45:55;4.00;65.20
2543;DHT22;1116;51.502;7.414;2024-01-27T07:48:27;4.10;64.00
2543;DHT22;1116;51.502;7.414;2024-01-27T07:50:58;4.10;63.10
2543;DHT22;1116;51.502;7.414;2024-01-27T07:53:28;4.10;63.30
2543;DHT22;1116;51.502;7.414;2024-01-27T07:55:58;4.10;62.20
2543;DHT22;1116;51.502;7.414;2024-01-27T07:58:32;4.10;63.60
2543;DHT22;1116;51.502;7.414;2024-01-27T08:01:02;4.20;63.30
2543;DHT22;1116;51.502;7.414;2024-01-27T08:03:33;4.20;62.20
2543;DHT22;1116;51.502;7.414;2024-01-27T08:06:04;4.20;63.10
2543;DHT22;1116;51.502;7.414;2024-01-27T08:08:37;4.20;62.10
2543;DHT22;1116;51.502;7.414;2024-01-27T08:11:06;4.20;63.20
2543;DHT22;1116;51.502;7.414;2024-01-27T08:13:39;4.30;62.10
2543;DHT22;1116;51.502;7.414;2024-01-27T08:16:12;4.30;62.60
2543;DHT22;1116;51.502;7.414;2024-01-27T08:18:42;4.30;61.90
2543;DHT22;1116;51.502;7.414;2024-01-27T08:21:13;4.30;60.60
2543;DHT22;1116;51.502;7.414;2024-01-27T08:23:43;4.30;61.20
2543;DHT22;1116;51.502;7.414;2024-01-27T08:26:13;4.40;61.30
2543;DHT22;1116;51.502;7.414;2024-01-27T08:28:51;4.50;60.90
2543;DHT22;1116;51.502;7.414;2024-01-27T08:31:23;4.50;60.70
2543;DHT22;1116;51.502;7.414;2024-01-27T08:33:53;4.50;60.80
2543;DHT22;1116;51.502;7.414;2024-01-27T08:36:27;4.60;60.90
2543;DHT22;1116;51.502;7.414;2024-01-27T08:38:58;4.70;60.60
2543;DHT22;1116;51.502;7.414;2024-01-27T08:41:30;4.70;59.20
2543;DHT22;1116;51.502;7.414;2024-01-27T08:44:06;4.80;58.70
2543;DHT22;1116;51.502;7.414;2024-01-27T08:46:36;4.90;58.80
2543;DHT22;1116;51.502;7.414;2024-01-27T08:49:06;4.90;58.50
2543;DHT22;1116;51.502;7.414;2024-01-27T08:51:36;5.00;57.10
2543;DHT22;1116;51.502;7.414;2024-01-27T08:54:06;5.10;55.80
2543;DHT22;1116;51.502;7.414;2024-01-27T08:56:40;5.20;55.50
2543;DHT22;1116;51.502;7.414;2024-01-27T08:59:20;5.20;53.90
2543;DHT22;1116;51.502;7.414;2024-01-27T09:01:51;5.30;54.80
2543;DHT22;1116;51.502;7.414;2024-01-27T09:04:21;5.40;53.40
2543;DHT22;1116;51.502;7.414;2024-01-27T09:06:51;5.50;53.50
2543;DHT22;1116;51.502;7.414;2024-01-27T09:09:21;5.50;52.90
2543;DHT22;1116;51.502;7.414;2024-01-27T09:11:51;5.60;52.40
2543;DHT22;1116;51.502;7.414;2024-01-27T09:14:23;5.70;50.80
2543;DHT22;1116;51.502;7.414;2024-01-27T09:16:53;5.80;51.00
2543;DHT22;1116;51.502;7.414;2024-01-27T09:19:23;5.80;49.50
2543;DHT22;1116;51.502;7.414;2024-01-27T09:21:53;5.80;49.20
2543;DHT22;1116;51.502;7.414;2024-01-27T09:24:31;5.90;48.50
2543;DHT22;1116;51.502;7.414;2024-01-27T09:27:03;5.90;47.40
2543;DHT22;1116;51.502;7.414;2024-01-27T09:29:38;6.00;46.70
2543;DHT22;1116;51.502;7.414;2024-01-27T09:32:18;6.30;45.70
2543;DHT22;1116;51.502;7.414;2024-01-27T09:34:49;6.00;45.30
2543;DHT22;1116;51.502;7.414;2024-01-27T09:37:21;6.00;45.00
2543;DHT22;1116;51.502;7.414;2024-01-27T09:40:00;6.00;44.30
2543;DHT22;1116;51.502;7.414;2024-01-27T09:42:34;6.10;44.60
2543;DHT22;1116;51.502;7.414;2024-01-27T09:45:09;6.00;43.80
2543;DHT22;1116;51.502;7.414;2024-01-27T09:47:39;6.00;43.50
2543;DHT22;1116;51.502;7.414;2024-01-27T09:50:11;6.10;43.90
2543;DHT22;1116;51.502;7.414;2024-01-27T09:52:46;6.10;42.30
2543;DHT22;1116;51.502;7.414;2024-01-27T09:55:20;6.10;43.10
2543;DHT22;1116;51.502;7.414;2024-01-27T09:58:35;6.20;43.20
2543;DHT22;1116;51.502;7.414;2024-01-27T10:01:38;6.20;42.20
2543;DHT22;1116;51.502;7.414;2024-01-27T10:04:10;6.30;41.70
2543;DHT22;1116;51.502;7.414;2024-01-27T10:06:44;6.30;40.90
2543;DHT22;1116;51.502;7.414;2024-01-27T10:09:17;6.40;41.20
2543;DHT22;1116;51.502;7.414;2024-01-27T10:11:52;6.40;40.20
2543;DHT22;1116;51.502;7.414;2024-01-27T10:14:25;6.70;40.40
2543;DHT22;1116;51.502;7.414;2024-01-27T10:16:58;6.30;40.20
2543;DHT22;1116;51.502;7.414;2024-01-27T10:19:28;6.40;40.20
2543;DHT22;1116;51.502;7.414;2024-01-27T10:22:00;6.40;40.20
2543;DHT22;1116;51.502;7.414;2024-01-27T10:24:31;6.40;40.20
2543;DHT22;1116;51.502;7.414;2024-01-27T10:27:03;6.40;38.50
2543;DHT22;1116;51.502;7.414;2024-01-27T10:29:33;6.50;39.10
2543;DHT22;1116;51.502;7.414;2024-01-27T10:32:12;6.60;38.80
2543;DHT22;1116;51.502;7.414;2024-01-27T10:34:42;6.60;37.70
2543;DHT22;1116;51.502;7.414;2024-01-27T10:37:14;6.60;38.00
2543;DHT22;1116;51.502;7.414;2024-01-27T10:39:44;6.60;37.50
2543;DHT22;1116;51.502;7.414;2024-01-27T10:42:15;6.60;37.00
2543;DHT22;1116;51.502;7.414;2024-01-27T10:44:46;6.70;36.80
2543;DHT22;1116;51.502;7.414;2024-01-27T10:47:20;6.80;37.20
2543;DHT22;1116;51.502;7.414;2024-01-27T10:49:51;6.80;36.00
2543;DHT22;1116;51.502;7.414;2024-01-27T10:52:23;6.80;36.20
2543;DHT22;1116;51.502;7.414;2024-01-27T10:55:00;6.80;36.50
2543;DHT22;1116;51.502;7.414;2024-01-27T10:57:34;6.90;36.90
2543;DHT22;1116;51.502;7.414;2024-01-27T11:00:05;7.00;36.30
2543;DHT22;1116;51.502;7.414;2024-01-27T11:02:39;7.00;34.40
2543;DHT22;1116;51.502;7.414;2024-01-27T11:05:10;7.00;35.20
2543;DHT22;1116;51.502;7.414;2024-01-27T11:07:42;7.00;34.10
2543;DHT22;1116;51.502;7.414;2024-01-27T11:10:16;7.10;34.60
2543;DHT22;1116;51.502;7.414;2024-01-27T11:12:47;7.20;34.90
2543;DHT22;1116;51.502;7.414;2024-01-27T11:15:22;7.30;32.30
2543;DHT22;1116;51.502;7.414;2024-01-27T11:17:57;7.30;30.50
2543;DHT22;1116;51.502;7.414;2024-01-27T11:20:31;7.30;30.40
2543;DHT22;1116;51.502;7.414;2024-01-27T11:23:09;7.30;30.00
2543;DHT22;1116;51.502;7.414;2024-01-27T11:25:39;7.30;28.50
2543;DHT22;1116;51.502;7.414;2024-01-27T11:28:17;7.40;29.00
2543;DHT22;1116;51.502;7.414;2024-01-27T11:30:48;7.50;28.10
2543;DHT22;1116;51.502;7.414;2024-01-27T11:33:24;7.50;27.30
2543;DHT22;1116;51.502;7.414;2024-01-27T11:36:00;7.50;27.10
2543;DHT22;1116;51.502;7.414;2024-01-27T11:38:32;7.60;27.30
2543;DHT22;1116;51.502;7.414;2024-01-27T11:41:03;7.70;27.10
2543;DHT22;1116;51.502;7.414;2024-01-27T11:43:33;7.70;25.70
2543;DHT22;1116;51.502;7.414;2024-01-27T11:46:03;7.70;25.90
2543;DHT22;1116;51.502;7.414;2024-01-27T11:48:41;7.70;25.80
2543;DHT22;1116;51.502;7.414;2024-01-27T11:51:17;7.80;24.60
2543;DHT22;1116;51.502;7.414;2024-01-27T11:53:57;7.90;25.10
2543;DHT22;1116;51.502;7.414;2024-01-27T11:56:38;7.90;24.80
2543;DHT22;1116;51.502;7.414;2024-01-27T11:59:15;8.20;24.30
2543;DHT22;1116;51.502;7.414;2024-01-27T12:01:45;7.90;22.50
2543;DHT22;1116;51.502;7.414;2024-01-27T12:04:25;7.90;22.50
2543;DHT22;1116;51.502;7.414;2024-01-27T12:06:55;7.90;22.50
2543;DHT22;1116;51.502;7.414;2024-01-27T12:09:25;8.00;22.60
2543;DHT22;1116;51.502;7.414;2024-01-27T12:11:55;7.90;22.50
2543;DHT22;1116;51.502;7.414;2024-01-27T12:14:25;8.20;21.40
2543;DHT22;1116;51.502;7.414;2024-01-27T12:16:55;8.20;20.80
2543;DHT22;1116;51.502;7.414;2024-01-27T12:19:28;8.20;20.20
2543;DHT22;1116;51.502;7.414;2024-01-27T12:21:58;8.20;18.80
2543;DHT22;1116;51.502;7.414;2024-01-27T12:24:28;8.20;19.70
2543;DHT22;1116;51.502;7.414;2024-01-27T12:27:11;8.20;19.50
2543;DHT22;1116;51.502;7.414;2024-01-27T12:29:47;8.20;18.40
2543;DHT22;1116;51.502;7.414;2024-01-27T12:32:18;8.60;18.30
2543;DHT22;1116;51.502;7.414;2024-01-27T12:34:51;8.40;19.60
2543;DHT22;1116;51.502;7.414;2024-01-27T12:37:22;8.50;17.90
2543;DHT22;1116;51.502;7.414;2024-01-27T12:39:52;8.50;17.50
2543;DHT22;1116;51.502;7.414;2024-01-27T12:42:22;8.70;17.70
2543;DHT22;1116;51.502;7.414;2024-01-27T12:44:52;8.90;17.40
2543;DHT22;1116;51.502;7.414;2024-01-27T12:47:22;8.70;17.60
2543;DHT22;1116;51.502;7.414;2024-01-27T12:49:55;8.70;17.00
2543;DHT22;1116;51.502;7.414;2024-01-27T12:52:31;8.70;14.90
2543;DHT22;1116;51.502;7.414;2024-01-27T12:55:03;8.70;15.30
2543;DHT22;1116;51.502;7.414;2024-01-27T12:57:33;8.80;14.40
2543;DHT22;1116;51.502;7.414;2024-01-27T13:00:05;8.70;14.40
2543;DHT22;1116;51.502;7.414;2024-01-27T13:02:41;8.70;14.40
2543;DHT22;1116;51.502;7.414;2024-01-27T13:05:14;8.80;14.50
2543;DHT22;1116;51.502;7.414;2024-01-27T13:07:46;8.80;14.40
2543;DHT22;1116;51.502;7.414;2024-01-27T13:10:16;8.90;14.50
2543;DHT22;1116;51.502;7.414;2024-01-27T13:12:46;9.00;12.60
2543;DHT22;1116;51.502;7.414;2024-01-27T13:15:16;9.00;12.80
2543;DHT22;1116;51.502;7.414;2024-01-27T13:17:46;9.10;13.70
2543;DHT22;1116;51.502;7.414;2024-01-27T13:20:22;9.10;12.70
2543;DHT22;1116;51.502;7.414;2024-01-27T13:22:54;9.10;12.50
2543;DHT22;1116;51.502;7.414;2024-01-27T13:25:24;9.10;12.40
2543;DHT22;1116;51.502;7.414;2024-01-27T13:27:54;9.20;12.90
2543;DHT22;1116;51.502;7.414;2024-01-27T13:30:25;9.20;11.80
2543;DHT22;1116;51.502;7.414;2024-01-27T13:32:59;9.20;12.50
2543;DHT22;1116;51.502;7.414;2024-01-27T13:35:32;9.30;12.30
2543;DHT22;1116;51.502;7.414;2024-01-27T13:38:02;9.40;11.90
2543;DHT22;1116;51.502;7.414;2024-01-27T13:40:32;9.50;11.70
2543;DHT22;1116;51.502;7.414;2024-01-27T13:43:02;9.50;9.10
2543;DHT22;1116;51.502;7.414;2024-01-27T13:45:32;10.00;10.00
2543;DHT22;1116;51.502;7.414;2024-01-27T13:48:02;9.60;9.10
2543;DHT22;1116;51.502;7.414;2024-01-27T13:50:35;9.60;9.40
2543;DHT22;1116;51.502;7.414;2024-01-27T13:53:12;9.70;9.30
2543;DHT22;1116;51.502;7.414;2024-01-27T13:55:42;9.70;9.00
2543;DHT22;1116;51.502;7.414;2024-01-27T13:58:12;9.70;8.60
2543;DHT22;1116;51.502;7.414;2024-01-27T14:00:43;9.70;9.30
2543;DHT22;1116;51.502;7.414;2024-01-27T14:03:13;9.70;8.40
2543;DHT22;1116;51.502;7.414;2024-01-27T14:05:45;9.80;9.40
2543;DHT22;1116;51.502;7.414;2024-01-27T14:08:15;9.80;7.40
2543;DHT22;1116;51.502;7.414;2024-01-27T14:10:50;9.80;8.50
2543;DHT22;1116;51.502;7.414;2024-01-27T14:13:23;9.90;7.20
2543;DHT22;1116;51.502;7.414;2024-01-27T14:15:53;9.90;9.00
2543;DHT22;1116;51.502;7.414;2024-01-27T14:18:23;9.90;8.60
2543;DHT22;1116;51.502;7.414;2024-01-27T14:21:03;9.90;7.30
2543;DHT22;1116;51.502;7.414;2024-01-27T14:23:34;10.00;5.70
2543;DHT22;1116;51.502;7.414;2024-01-27T14:26:04;10.00;7.10
2543;DHT22;1116;51.502;7.414;2024-01-27T14:28:36;10.00;6.70
2543;DHT22;1116;51.502;7.414;2024-01-27T14:31:08;10.00;6.60
2543;DHT22;1116;51.502;7.414;2024-01-27T14:33:41;10.00;6.70
2543;DHT22;1116;51.502;7.414;2024-01-27T14:36:14;9.80;6.10
2543;DHT22;1116;51.502;7.414;2024-01-27T14:38:44;9.80;6.20
2543;DHT22;1116;51.502;7.414;2024-01-27T14:41:17;9.70;6.10
2543;DHT22;1116;51.502;7.414;2024-01-27T14:43:47;9.70;6.00
2543;DHT22;1116;51.502;7.414;2024-01-27T14:46:18;9.70;6.80
2543;DHT22;1116;51.502;7.414;2024-01-27T14:48:48;9.70;7.00
2543;DHT22;1116;51.502;7.414;2024-01-27T14:51:25;9.60;5.00
2543;DHT22;1116;51.502;7.414;2024-01-27T14:54:17;9.50;5.90
2543;DHT22;1116;51.502;7.414;2024-01-27T14:56:52;9.40;7.00
2543;DHT22;1116;51.502;7.414;2024-01-27T14:59:22;9.40;6.50
2543;DHT22;1116;51.502;7.414;2024-01-27T15:01:52;9.40;5.90
2543;DHT22;1116;51.502;7.414;2024-01-27T15:04:24;9.30;7.20
2543;DHT22;1116;51.502;7.414;2024-01-27T15:06:56;9.40;7.40
2543;DHT22;1116;51.502;7.414;2024-01-27T15:09:27;9.40;7.10
2543;DHT22;1116;51.502;7.414;2024-01-27T15:11:57;9.40;7.50
2543;DHT22;1116;51.502;7.414;2024-01-27T15:14:27;9.40;8.00
2543;DHT22;1116;51.502;7.414;2024-01-27T15:16:59;9.30;7.20
2543;DHT22;1116;51.502;7.414;2024-01-27T15:19:29;9.20;6.80
2543;DHT22;1116;51.502;7.414;2024-01-27T15:22:10;9.20;8.20
2543;DHT22;1116;51.502;7.414;2024-01-27T15:24:39;9.20;9.00
2543;DHT22;1116;51.502;7.414;2024-01-27T15:27:10;9.30;8.50
2543;DHT22;1116;51.502;7.414;2024-01-27T15:29:40;9.20;7.90
2543;DHT22;1116;51.502;7.414;2024-01-27T15:32:14;9.10;6.90
2543;DHT22;1116;51.502;7.414;2024-01-27T15:34:48;9.00;8.80
2543;DHT22;1116;51.502;7.414;2024-01-27T15:37:21;9.00;9.30
2543;DHT22;1116;51.502;7.414;2024-01-27T15:39:51;9.00;8.90
2543;DHT22;1116;51.502;7.414;2024-01-27T15:42:22;9.00;9.50
2543;DHT22;1116;51.502;7.414;2024-01-27T15:44:52;9.00;10.20
2543;DHT22;1116;51.502;7.414;2024-01-27T15:47:22;8.90;9.60
2543;DHT22;1116;51.502;7.414;2024-01-27T15:49:52;8.80;10.00
2543;DHT22;1116;51.502;7.414;2024-01-27T15:52:27;9.20;10.90
2543;DHT22;1116;51.502;7.414;2024-01-27T15:54:56;8.80;11.10
2543;DHT22;1116;51.502;7.414;2024-01-27T15:57:26;8.40;11.60
2543;DHT22;1116;51.502;7.414;2024-01-27T15:59:57;8.40;12.10
2543;DHT22;1116;51.502;7.414;2024-01-27T16:02:30;8.20;12.00
2543;DHT22;1116;51.502;7.414;2024-01-27T16:05:00;8.10;12.70
2543;DHT22;1116;51.502;7.414;2024-01-27T16:07:33;8.00;13.50
2543;DHT22;1116;51.502;7.414;2024-01-27T16:10:03;8.00;13.90
2543;DHT22;1116;51.502;7.414;2024-01-27T16:12:33;7.90;13.90
2543;DHT22;1116;51.502;7.414;2024-01-27T16:15:04;7.80;13.80
2543;DHT22;1116;51.502;7.414;2024-01-27T16:17:35;7.70;13.70
2543;DHT22;1116;51.502;7.414;2024-01-27T16:20:06;7.60;13.70
2543;DHT22;1116;51.502;7.414;2024-01-27T16:22:40;7.50;15.00
2543;DHT22;1116;51.502;7.414;2024-01-27T16:25:11;7.50;15.90
2543;DHT22;1116;51.502;7.414;2024-01-27T16:27:41;7.30;15.40
2543;DHT22;1116;51.502;7.414;2024-01-27T16:30:12;7.20;16.30
2543;DHT22;1116;51.502;7.414;2024-01-27T16:32:45;7.10;16.60
2543;DHT22;1116;51.502;7.414;2024-01-27T16:35:16;7.00;16.90
2543;DHT22;1116;51.502;7.414;2024-01-27T16:37:50;6.90;17.30
2543;DHT22;1116;51.502;7.414;2024-01-27T16:40:22;6.90;17.80
2543;DHT22;1116;51.502;7.414;2024-01-27T16:42:58;6.70;17.50
2543;DHT22;1116;51.502;7.414;2024-01-27T16:45:28;6.60;18.50
2543;DHT22;1116;51.502;7.414;2024-01-27T16:48:00;6.60;18.50
2543;DHT22;1116;51.502;7.414;2024-01-27T16:50:45;6.60;18.80
2543;DHT22;1116;51.502;7.414;2024-01-27T16:53:18;6.50;19.10